Time;durP1;ratioP1;P1;durP2;ratioP2;P2;SDS_P1;SDS_P2;PMS_P1;PMS_P2;Temp;Humidity;BMP_temperature;BMP_pressure;BME280_temperature;BME280_humidity;BME280_pressure;Samples;Min_cycle;Max_cycle;Signal;HPM_P1;HPM_P2
2021/07/08 00:00:44;;;;;;;17.15;7.37;;;;;;;20.49;81.27;101204.14;1809945;78;21097;-62
2021/07/08 00:03:13;;;;;;;22.20;8.15;;;;;;;20.44;81.33;101198.66;1810274;79;21156;-63
2021/07/08 00:05:43;;;;;;;13.48;7.65;;;;;;;20.42;81.42;101201.93;1809488;79;21148;-62
2021/07/08 00:08:14;;;;;;;11.57;7.83;;;;;;;20.40;81.50;101201.19;1809339;79;21525;-62
2021/07/08 00:10:46;;;;;;;14.53;8.38;;;;;;;20.38;81.58;101199.58;1810896;79;21136;-62
2021/07/08 00:13:17;;;;;;;15.20;8.43;;;;;;;20.37;81.73;101201.41;1809200;78;21475;-63
2021/07/08 00:15:46;;;;;;;15.70;7.87;;;;;;;20.34;81.92;101201.62;1807344;77;21552;-63
2021/07/08 00:18:15;;;;;;;11.63;8.00;;;;;;;20.33;81.97;101197.75;1800128;80;21164;-63
2021/07/08 00:20:46;;;;;;;12.58;7.17;;;;;;;20.34;81.96;101194.09;1800153;80;21061;-63
2021/07/08 00:23:16;;;;;;;11.00;7.55;;;;;;;20.34;82.02;101202.95;1800208;79;21140;-62
2021/07/08 00:25:46;;;;;;;13.18;7.72;;;;;;;20.34;82.04;101206.13;1800036;79;21065;-63
2021/07/08 00:28:16;;;;;;;13.78;8.00;;;;;;;20.33;82.10;101204.44;1800074;80;21516;-63
2021/07/08 00:30:47;;;;;;;11.15;7.55;;;;;;;20.31;82.19;101205.88;1800228;80;21168;-63
2021/07/08 00:33:17;;;;;;;12.18;8.35;;;;;;;20.30;82.22;101207.32;1800102;80;21073;-63
2021/07/08 00:35:46;;;;;;;15.53;8.10;;;;;;;20.25;82.27;101200.95;1800079;79;21100;-64
2021/07/08 00:38:15;;;;;;;12.93;7.60;;;;;;;20.21;82.39;101211.50;1800041;80;21069;-63
2021/07/08 00:40:44;;;;;;;12.70;6.85;;;;;;;20.20;82.49;101209.81;1800091;80;21171;-63
2021/07/08 00:43:13;;;;;;;11.53;7.47;;;;;;;20.17;82.55;101204.68;1800089;80;21496;-63
2021/07/08 00:45:43;;;;;;;11.73;7.53;;;;;;;20.14;82.64;101209.77;1800070;79;21502;-63
2021/07/08 00:48:12;;;;;;;10.32;7.20;;;;;;;20.13;82.67;101213.89;1800267;78;21555;-63
2021/07/08 00:50:50;;;;;;;12.78;7.97;;;;;;;20.09;82.83;101210.58;1800028;80;21595;-63
2021/07/08 00:53:17;;;;;;;16.67;8.05;;;;;;;20.10;82.98;101215.44;1798958;79;21167;-63
2021/07/08 00:56:00;;;;;;;14.65;7.60;;;;;;;20.09;83.06;101207.06;1800201;80;21037;-63
2021/07/08 00:58:29;;;;;;;14.13;8.40;;;;;;;20.08;83.14;101213.36;1800248;80;21061;-63
2021/07/08 01:00:59;;;;;;;16.02;7.62;;;;;;;20.08;83.14;101213.36;1800006;78;21089;-63
2021/07/08 01:03:29;;;;;;;13.48;7.50;;;;;;;20.04;83.07;101209.55;1800091;80;21670;-63
2021/07/08 01:05:58;;;;;;;15.00;8.25;;;;;;;20.02;83.16;101211.98;1800104;78;21065;-62
2021/07/08 01:08:28;;;;;;;13.28;7.53;;;;;;;19.98;83.21;101222.03;1800069;80;21073;-63
2021/07/08 01:10:57;;;;;;;15.48;8.40;;;;;;;19.97;83.20;101220.31;1800190;78;21148;-63
2021/07/08 01:13:25;;;;;;;10.58;7.40;;;;;;;19.94;83.22;101223.22;1799976;78;21101;-63
2021/07/08 01:15:54;;;;;;;11.95;7.45;;;;;;;19.91;83.31;101226.10;1800927;78;21090;-63
2021/07/08 01:18:23;;;;;;;12.23;7.42;;;;;;;19.88;83.41;101222.79;1826047;78;21152;-62
2021/07/08 01:20:52;;;;;;;14.78;8.23;;;;;;;19.86;83.42;101218.89;1825749;78;21563;-62
2021/07/08 01:23:21;;;;;;;14.05;8.13;;;;;;;19.83;83.44;101215.11;1825697;78;21081;-62
2021/07/08 01:25:50;;;;;;;13.58;7.97;;;;;;;19.82;83.46;101216.06;1825588;78;21152;-63
2021/07/08 01:28:19;;;;;;;10.90;7.55;;;;;;;19.80;83.53;101220.66;1825713;78;21534;-62
2021/07/08 01:30:48;;;;;;;13.28;7.58;;;;;;;19.77;83.59;101226.21;1825724;78;21069;-63
2021/07/08 01:33:17;;;;;;;16.75;8.33;;;;;;;19.74;83.63;101218.44;1825691;78;21516;-62
2021/07/08 01:35:46;;;;;;;15.50;8.20;;;;;;;19.71;83.63;101227.95;1825695;78;21132;-63
2021/07/08 01:38:14;;;;;;;15.00;7.45;;;;;;;19.67;83.71;101226.83;1825898;78;21054;-62
2021/07/08 01:40:43;;;;;;;14.80;7.72;;;;;;;19.66;83.76;101229.59;1825649;78;21053;-62
2021/07/08 01:43:12;;;;;;;14.90;8.48;;;;;;;19.64;83.87;101233.73;1825644;78;21551;-62
2021/07/08 01:45:41;;;;;;;14.43;8.18;;;;;;;19.64;83.98;101235.07;1825878;78;21090;-63
2021/07/08 01:48:10;;;;;;;14.18;7.87;;;;;;;19.61;84.06;101231.27;1825701;78;21069;-62
2021/07/08 01:50:39;;;;;;;13.03;8.00;;;;;;;19.66;84.20;101231.81;1825686;78;21081;-63
2021/07/08 01:53:08;;;;;;;13.80;8.18;;;;;;;19.72;84.23;101234.53;1825667;78;21037;-64
2021/07/08 01:55:37;;;;;;;14.23;8.35;;;;;;;19.77;84.18;101244.91;1825789;78;21022;-62
2021/07/08 01:58:06;;;;;;;12.00;7.58;;;;;;;19.78;84.11;101241.30;1825885;78;21062;-63
2021/07/08 02:00:34;;;;;;;14.60;8.20;;;;;;;19.82;84.09;101248.13;1825804;78;21136;-63
2021/07/08 02:03:04;;;;;;;15.23;8.53;;;;;;;19.80;84.02;101251.39;1825818;78;21073;-63
2021/07/08 02:05:32;;;;;;;17.12;8.55;;;;;;;19.76;84.15;101244.56;1825693;78;21163;-63
2021/07/08 02:08:01;;;;;;;14.73;8.90;;;;;;;19.73;84.22;101254.11;1826061;78;21069;-63
2021/07/08 02:10:30;;;;;;;19.12;8.50;;;;;;;19.70;84.23;101249.82;1825917;78;21147;-62
2021/07/08 02:12:59;;;;;;;14.65;8.73;;;;;;;19.70;84.28;101252.95;1825829;78;21073;-63
2021/07/08 02:15:27;;;;;;;15.78;8.15;;;;;;;19.73;84.43;101256.78;1825855;78;21061;-63
2021/07/08 02:17:57;;;;;;;18.40;7.83;;;;;;;19.77;84.55;101260.95;1825729;78;21571;-63
2021/07/08 02:20:26;;;;;;;11.93;7.45;;;;;;;19.81;84.72;101257.13;1825757;78;21132;-62
2021/07/08 02:22:54;;;;;;;10.88;6.95;;;;;;;19.90;84.83;101260.48;1825816;78;21582;-62
2021/07/08 02:25:24;;;;;;;12.73;7.53;;;;;;;20.09;84.94;101252.51;1825825;78;21017;-62
2021/07/08 02:27:53;;;;;;;11.88;7.28;;;;;;;20.29;84.89;101254.61;1825794;78;21131;-63
2021/07/08 02:30:24;;;;;;;14.63;7.72;;;;;;;20.36;84.58;101250.53;1825756;78;21508;-63
2021/07/08 02:32:55;;;;;;;11.22;7.17;;;;;;;20.40;84.25;101254.68;1825724;78;21101;-63
2021/07/08 02:35:25;;;;;;;12.47;6.45;;;;;;;20.47;83.98;101260.42;1825787;78;21500;-62
2021/07/08 02:37:55;;;;;;;14.53;7.65;;;;;;;20.56;83.78;101261.58;1825806;78;21060;-63
2021/07/08 02:40:27;;;;;;;11.57;7.20;;;;;;;20.65;83.45;101258.76;1825757;78;21577;-62
2021/07/08 02:42:56;;;;;;;14.55;7.15;;;;;;;20.70;82.96;101265.48;1825797;78;21061;-63
2021/07/08 02:45:28;;;;;;;8.95;6.72;;;;;;;20.77;82.67;101265.41;1825736;78;22196;-63
2021/07/08 02:47:58;;;;;;;11.38;6.25;;;;;;;20.86;82.41;101272.36;1825786;78;21112;-63
2021/07/08 02:50:30;;;;;;;10.28;6.30;;;;;;;21.01;82.17;101264.55;1825775;78;21143;-63
2021/07/08 02:52:59;;;;;;;9.73;6.85;;;;;;;21.30;81.88;101272.19;1825810;78;21065;-63
2021/07/08 02:55:28;;;;;;;9.58;5.87;;;;;;;21.46;81.72;101269.24;1825776;78;21454;-63
2021/07/08 02:57:58;;;;;;;12.50;5.83;;;;;;;21.63;81.55;101265.25;1825717;78;21661;-63
2021/07/08 03:00:29;;;;;;;15.58;6.03;;;;;;;21.74;81.23;101271.48;1825798;78;21081;-63
2021/07/08 03:02:59;;;;;;;8.10;6.08;;;;;;;21.88;80.83;101273.09;1825908;78;21053;-62
2021/07/08 03:05:28;;;;;;;8.20;5.30;;;;;;;22.00;80.74;101279.30;1825882;78;21500;-62
2021/07/08 03:07:58;;;;;;;10.90;5.53;;;;;;;22.14;80.42;101281.75;1825757;78;21485;-62
2021/07/08 03:10:29;;;;;;;14.07;6.10;;;;;;;22.32;79.98;101287.52;1825717;77;21653;-62
2021/07/08 03:12:58;;;;;;;9.23;5.40;;;;;;;22.47;79.41;101279.22;1825892;78;21058;-62
2021/07/08 03:15:27;;;;;;;8.73;5.90;;;;;;;22.63;78.75;101278.80;1825786;78;21508;-62
2021/07/08 03:17:57;;;;;;;20.60;7.33;;;;;;;22.79;78.19;101285.13;1825790;77;21093;-62
2021/07/08 03:20:29;;;;;;;12.90;6.47;;;;;;;22.95;77.66;101290.94;1825856;78;21061;-62
2021/07/08 03:22:58;;;;;;;10.68;6.00;;;;;;;23.07;77.10;101287.28;1825933;78;21145;-63
2021/07/08 03:25:27;;;;;;;11.35;6.10;;;;;;;23.18;76.72;101286.35;1825778;78;21520;-63
2021/07/08 03:27:56;;;;;;;12.40;6.30;;;;;;;23.27;76.46;101278.86;1825762;78;21461;-63
2021/07/08 03:30:27;;;;;;;10.20;5.70;;;;;;;23.36;76.00;101276.39;1825782;78;21074;-62
2021/07/08 03:32:56;;;;;;;13.60;6.12;;;;;;;23.42;75.76;101276.70;1825781;78;21037;-63
2021/07/08 03:35:28;;;;;;;11.22;6.10;;;;;;;23.49;75.55;101282.42;1825687;77;21034;-62
2021/07/08 03:37:58;;;;;;;8.70;5.87;;;;;;;23.57;75.10;101284.45;1826061;78;21497;-62
2021/07/08 03:40:28;;;;;;;15.43;6.78;;;;;;;23.57;75.10;101284.45;1825858;78;21053;-62
2021/07/08 03:42:57;;;;;;;11.97;6.53;;;;;;;23.61;75.01;101285.42;1825736;78;21066;-62
2021/07/08 03:45:26;;;;;;;8.48;5.47;;;;;;;23.67;74.80;101289.41;1825763;78;21554;-62
2021/07/08 03:47:55;;;;;;;13.32;6.62;;;;;;;23.74;74.61;101291.06;1825598;78;21147;-62
2021/07/08 03:50:24;;;;;;;10.40;5.90;;;;;;;23.82;74.30;101288.61;1825766;78;21590;-62
2021/07/08 03:52:53;;;;;;;12.07;6.47;;;;;;;23.82;74.15;101290.80;1825769;78;21108;-63
2021/07/08 03:55:23;;;;;;;13.30;6.20;;;;;;;23.85;74.04;101298.61;1825723;78;21144;-62
2021/07/08 03:57:55;;;;;;;12.90;6.12;;;;;;;23.88;74.02;101301.05;1825963;78;21090;-62
2021/07/08 04:00:39;;;;;;;12.28;6.45;;;;;;;24.00;73.92;101299.62;1825794;78;21139;-62
2021/07/08 04:03:10;;;;;;;12.10;5.78;;;;;;;24.02;73.55;101299.83;1825679;78;21146;-63
2021/07/08 04:05:40;;;;;;;9.63;6.65;;;;;;;24.13;73.52;101305.62;1825289;77;21509;-63
2021/07/08 04:08:10;;;;;;;12.15;6.33;;;;;;;24.21;73.22;101308.47;1825763;78;21562;-62
2021/07/08 04:10:40;;;;;;;10.50;6.42;;;;;;;24.21;72.91;101308.47;1825693;78;21061;-63
2021/07/08 04:13:15;;;;;;;8.80;5.95;;;;;;;24.32;72.60;101309.38;1825786;78;21133;-62
2021/07/08 04:15:45;;;;;;;13.72;6.50;;;;;;;24.44;72.42;101310.48;1825725;78;21057;-63
2021/07/08 04:18:15;;;;;;;11.55;7.35;;;;;;;24.55;71.88;101306.88;1826712;77;21053;-63
2021/07/08 04:20:45;;;;;;;17.57;8.18;;;;;;;24.55;71.49;101312.73;1832462;77;21061;-62
2021/07/08 04:23:16;;;;;;;10.95;6.47;;;;;;;24.65;71.14;101313.12;1831857;78;21065;-63
2021/07/08 04:25:45;;;;;;;10.48;6.72;;;;;;;24.97;70.86;101316.11;1831837;78;21574;-62
2021/07/08 04:28:15;;;;;;;17.15;7.37;;;;;;;25.17;70.39;101305.33;1831804;78;21504;-62
2021/07/08 04:30:44;;;;;;;14.15;6.37;;;;;;;25.35;69.97;101313.59;1831828;78;21088;-62
2021/07/08 04:33:13;;;;;;;17.25;7.37;;;;;;;25.51;69.40;101315.22;1831834;78;21589;-62
2021/07/08 04:35:42;;;;;;;19.82;6.28;;;;;;;25.79;69.15;101314.81;1831722;78;21519;-63
2021/07/08 04:38:13;;;;;;;9.03;5.55;;;;;;;26.01;68.27;101316.86;1831825;78;21053;-62
2021/07/08 04:40:43;;;;;;;9.35;5.83;;;;;;;26.22;67.85;101315.78;1831914;78;21061;-62
2021/07/08 04:43:13;;;;;;;9.95;5.40;;;;;;;26.36;66.90;101322.05;1831896;78;21033;-62
2021/07/08 04:45:43;;;;;;;9.28;5.72;;;;;;;26.50;66.16;101316.13;1831826;78;21557;-63
2021/07/08 04:48:13;;;;;;;13.50;5.62;;;;;;;26.73;66.04;101317.97;1831713;78;21085;-63
2021/07/08 04:50:42;;;;;;;10.40;5.10;;;;;;;26.96;65.31;101325.16;1831837;78;21547;-62
2021/07/08 04:53:16;;;;;;;7.85;5.35;;;;;;;27.04;64.19;101325.73;1831832;78;21057;-62
2021/07/08 04:55:46;;;;;;;9.95;6.12;;;;;;;27.15;63.63;101331.42;1831811;78;21053;-62
2021/07/08 04:58:15;;;;;;;14.03;5.70;;;;;;;27.18;62.79;101331.09;1831824;78;21057;-62
2021/07/08 05:00:44;;;;;;;7.62;4.78;;;;;;;27.33;62.90;101326.89;1831921;78;21171;-63
2021/07/08 05:03:13;;;;;;;8.65;5.37;;;;;;;27.62;62.72;101329.81;1831841;78;21057;-62
2021/07/08 05:05:41;;;;;;;10.18;4.87;;;;;;;27.94;61.90;101334.30;1831937;78;21073;-62
2021/07/08 05:08:10;;;;;;;9.68;5.20;;;;;;;28.10;61.01;101333.88;1831796;78;21069;-62
2021/07/08 05:10:39;;;;;;;7.47;4.53;;;;;;;28.29;60.54;101336.01;1832039;78;21586;-62
2021/07/08 05:13:09;;;;;;;9.80;5.53;;;;;;;28.42;60.13;101321.54;1831734;78;21089;-63
2021/07/08 05:15:38;;;;;;;8.18;4.60;;;;;;;28.59;59.48;101327.02;1831772;78;21167;-62
2021/07/08 05:18:07;;;;;;;12.07;4.28;;;;;;;28.57;58.47;101323.63;1831812;78;21480;-62
2021/07/08 05:20:38;;;;;;;8.50;3.70;;;;;;;28.66;58.74;101329.42;1818985;78;21171;-62
2021/07/08 05:23:16;;;;;;;6.10;4.10;;;;;;;28.84;58.20;101324.73;1813998;79;21085;-62
2021/07/08 05:25:43;;;;;;;6.50;3.52;;;;;;;28.95;57.12;101321.37;1813553;79;21066;-63
2021/07/08 05:28:13;;;;;;;9.48;4.25;;;;;;;28.93;56.33;101328.83;1813950;79;21156;-62
2021/07/08 05:30:42;;;;;;;9.08;3.72;;;;;;;28.97;56.07;101322.05;1814087;79;21132;-63
2021/07/08 05:33:11;;;;;;;13.72;3.80;;;;;;;28.86;55.21;101322.70;1814013;79;21066;-62
2021/07/08 05:35:40;;;;;;;12.68;3.90;;;;;;;29.04;55.66;101323.09;1814056;79;21501;-62
2021/07/08 05:38:09;;;;;;;9.23;3.75;;;;;;;29.13;54.72;101323.95;1813965;79;21053;-64
2021/07/08 05:40:38;;;;;;;9.10;3.27;;;;;;;29.20;54.44;101324.50;1814042;79;21517;-62
2021/07/08 05:43:07;;;;;;;6.08;3.62;;;;;;;29.22;54.40;101322.98;1814062;79;21510;-63
2021/07/08 05:45:37;;;;;;;6.85;3.10;;;;;;;29.43;54.29;101326.53;1813985;79;21082;-62
2021/07/08 05:48:06;;;;;;;6.65;3.40;;;;;;;29.61;53.57;101317.71;1813989;79;21050;-62
2021/07/08 05:50:35;;;;;;;5.90;3.33;;;;;;;29.51;52.19;101323.84;1814156;79;21129;-62
2021/07/08 05:53:04;;;;;;;14.38;4.50;;;;;;;29.55;52.58;101316.20;1814083;79;21203;-63
2021/07/08 05:55:34;;;;;;;6.15;3.58;;;;;;;29.82;53.47;101319.06;1814113;79;21058;-63
2021/07/08 05:58:03;;;;;;;7.67;3.80;;;;;;;30.19;52.90;101314.89;1814056;79;21075;-62
2021/07/08 06:00:32;;;;;;;7.53;4.30;;;;;;;30.42;52.29;101310.95;1814188;79;21058;-62
2021/07/08 06:03:01;;;;;;;12.65;3.90;;;;;;;30.63;51.51;101315.75;1814061;78;21050;-62
2021/07/08 06:05:31;;;;;;;8.50;4.25;;;;;;;30.74;50.99;101318.59;1813953;78;21544;-62
2021/07/08 06:08:00;;;;;;;7.25;3.60;;;;;;;30.81;51.34;101317.38;1814085;79;21089;-63
2021/07/08 06:10:29;;;;;;;7.37;3.25;;;;;;;30.94;50.69;101315.77;1814125;79;21144;-62
2021/07/08 06:12:58;;;;;;;3.92;3.37;;;;;;;30.98;50.59;101308.10;1814274;79;21093;-62
2021/07/08 06:15:28;;;;;;;10.68;3.60;;;;;;;31.18;50.48;101316.11;1814008;79;21148;-62
2021/07/08 06:17:57;;;;;;;11.65;4.42;;;;;;;31.28;48.78;101318.61;1813951;79;21575;-62
2021/07/08 06:20:27;;;;;;;3.87;2.62;;;;;;;31.05;47.64;101314.52;1811766;78;21133;-62
2021/07/08 06:22:56;;;;;;;5.47;2.98;;;;;;;31.03;48.49;101322.01;1808835;79;21061;-62
2021/07/08 06:25:31;;;;;;;8.20;3.10;;;;;;;30.93;48.36;101315.95;1809901;79;21086;-63
2021/07/08 06:27:55;;;;;;;6.58;3.30;;;;;;;30.88;48.00;101312.39;1807702;79;21195;-62
2021/07/08 06:30:24;;;;;;;9.83;3.08;;;;;;;31.13;48.80;101313.60;1810678;78;21081;-62
2021/07/08 06:32:53;;;;;;;9.93;3.47;;;;;;;31.30;48.39;101311.59;1807886;79;21521;-62
2021/07/08 06:35:22;;;;;;;7.35;3.45;;;;;;;31.54;47.65;101314.16;1808411;79;21073;-62
2021/07/08 06:37:51;;;;;;;5.47;3.22;;;;;;;31.53;46.67;101315.17;1808712;79;21098;-62
2021/07/08 06:40:20;;;;;;;9.03;2.98;;;;;;;31.61;46.48;101318.84;1808700;78;21073;-62
2021/07/08 06:42:48;;;;;;;8.45;3.37;;;;;;;31.71;46.09;101328.97;1809121;79;21046;-63
2021/07/08 06:45:18;;;;;;;9.25;3.75;;;;;;;31.59;45.17;101320.91;1809497;79;21133;-62
2021/07/08 06:47:50;;;;;;;6.00;2.87;;;;;;;31.38;45.21;101325.67;1808545;79;21054;-62
2021/07/08 06:50:20;;;;;;;14.78;4.08;;;;;;;31.36;45.30;101323.96;1808423;78;21528;-62
2021/07/08 06:52:49;;;;;;;3.10;2.30;;;;;;;31.57;46.16;101324.34;1809557;79;21102;-62
2021/07/08 06:55:18;;;;;;;7.65;3.08;;;;;;;31.90;45.29;101327.05;1810401;79;21516;-65
2021/07/08 06:57:53;;;;;;;7.80;2.90;;;;;;;32.16;45.00;101325.78;1810194;79;21069;-62
2021/07/08 07:00:24;;;;;;;8.08;3.08;;;;;;;32.31;44.19;101324.41;1809763;79;21038;-62
2021/07/08 07:02:58;;;;;;;7.22;3.22;;;;;;;32.38;44.38;101325.88;1809615;79;21058;-62
2021/07/08 07:05:28;;;;;;;9.15;2.85;;;;;;;32.45;43.58;101321.36;1809342;79;21026;-62
2021/07/08 07:07:58;;;;;;;14.87;3.65;;;;;;;32.47;42.98;101321.48;1818002;78;21503;-62
2021/07/08 07:10:28;;;;;;;6.00;2.70;;;;;;;32.55;43.42;101313.70;1839342;77;21537;-62
2021/07/08 07:13:00;;;;;;;9.33;2.30;;;;;;;32.78;43.64;101317.69;1839812;78;21055;-62
2021/07/08 07:15:30;;;;;;;6.12;2.80;;;;;;;33.00;42.98;101319.92;1839952;77;21030;-62
2021/07/08 07:17:59;;;;;;;8.40;3.08;;;;;;;33.03;42.13;101316.78;1839977;78;21128;-62
2021/07/08 07:20:28;;;;;;;7.83;2.60;;;;;;;33.04;41.68;101312.20;1840057;77;21112;-62
2021/07/08 07:22:57;;;;;;;4.65;2.37;;;;;;;33.23;41.63;101312.08;1868164;77;21112;-62
2021/07/08 07:25:27;;;;;;;4.67;2.10;;;;;;;33.33;40.70;101312.61;1868070;77;21089;-62
2021/07/08 07:27:57;;;;;;;7.03;2.42;;;;;;;33.43;40.69;101313.09;1868186;77;21049;-62
2021/07/08 07:30:28;;;;;;;10.40;2.60;;;;;;;33.46;39.98;101316.80;1868056;77;21555;-62
2021/07/08 07:32:57;;;;;;;2.98;2.35;;;;;;;33.32;39.92;101313.63;1868045;77;21041;-62
2021/07/08 07:35:26;;;;;;;14.23;3.02;;;;;;;33.28;39.95;101312.34;1868070;77;21500;-62
2021/07/08 07:37:55;;;;;;;13.95;2.60;;;;;;;33.17;39.02;101307.42;1868078;77;21069;-62
2021/07/08 07:40:25;;;;;;;7.90;2.05;;;;;;;33.41;40.11;101319.28;1868062;77;21151;-61
2021/07/08 07:42:54;;;;;;;7.50;2.67;;;;;;;33.47;39.21;101314.91;1868068;77;21066;-62
2021/07/08 07:45:23;;;;;;;11.85;2.62;;;;;;;33.33;39.03;101318.06;1867974;77;21069;-62
2021/07/08 07:47:52;;;;;;;5.05;2.52;;;;;;;33.35;39.23;101314.62;1868048;77;21093;-62
2021/07/08 07:50:24;;;;;;;7.55;2.15;;;;;;;33.36;38.32;101321.75;1867990;77;21069;-62
2021/07/08 07:52:55;;;;;;;7.50;2.60;;;;;;;33.23;38.00;101309.36;1868100;77;21026;-62
2021/07/08 07:55:28;;;;;;;4.85;2.10;;;;;;;33.24;38.50;101312.42;1868123;76;21053;-62
2021/07/08 07:57:59;;;;;;;6.08;2.10;;;;;;;33.18;38.15;101297.68;1867982;77;21045;-63
2021/07/08 08:00:29;;;;;;;5.42;2.45;;;;;;;33.28;38.05;101305.52;1868181;77;21057;-62
2021/07/08 08:02:58;;;;;;;8.33;2.65;;;;;;;33.37;37.18;101303.51;1868225;77;21432;-62
2021/07/08 08:10:50;;;;;;;5.67;2.77;;;;;;;33.35;35.89;101305.06;1868028;77;21057;-62
2021/07/08 08:13:20;;;;;;;5.30;2.08;;;;;;;33.44;35.53;101304.37;1868178;77;21029;-62
2021/07/08 08:15:51;;;;;;;4.45;1.60;;;;;;;33.44;35.30;101305.74;1868073;77;21524;-62
2021/07/08 08:18:22;;;;;;;9.10;2.10;;;;;;;33.45;35.07;101304.19;1868061;77;21081;-61
2021/07/08 08:20:52;;;;;;;4.25;2.00;;;;;;;33.62;35.63;101303.37;1867966;76;21131;-62
2021/07/08 08:23:21;;;;;;;11.22;2.37;;;;;;;33.79;34.07;101299.00;1857438;77;21058;-62
2021/07/08 08:25:50;;;;;;;3.33;2.08;;;;;;;33.95;34.34;101304.68;1856308;77;21034;-62
2021/07/08 08:28:19;;;;;;;8.35;2.22;;;;;;;34.11;33.99;101309.82;1856339;77;21496;-61
2021/07/08 08:30:48;;;;;;;11.75;2.30;;;;;;;34.28;34.00;101305.42;1856313;77;21042;-62
2021/07/08 08:33:16;;;;;;;16.07;2.83;;;;;;;34.49;32.30;101302.57;1856268;77;21038;-62
2021/07/08 08:35:45;;;;;;;3.87;1.85;;;;;;;34.36;31.05;101305.23;1856339;77;21062;-62
2021/07/08 08:38:14;;;;;;;5.78;1.82;;;;;;;34.18;30.83;101303.91;1856334;77;21073;-62
2021/07/08 08:40:45;;;;;;;6.05;2.02;;;;;;;34.04;30.29;101313.03;1856339;77;21477;-61
2021/07/08 08:43:14;;;;;;;3.10;1.40;;;;;;;33.90;30.33;101308.53;1856446;77;21048;-61
2021/07/08 08:45:44;;;;;;;5.58;1.45;;;;;;;33.93;30.67;101306.77;1856284;77;21070;-63
2021/07/08 08:48:13;;;;;;;3.10;1.60;;;;;;;33.91;29.93;101306.97;1856324;77;21160;-62
2021/07/08 08:50:44;;;;;;;5.17;1.95;;;;;;;33.77;29.22;101306.05;1856315;77;21144;-62
2021/07/08 08:53:15;;;;;;;2.52;1.27;;;;;;;33.76;30.19;101299.42;1856301;77;21014;-62
2021/07/08 08:55:45;;;;;;;3.87;1.40;;;;;;;33.65;27.54;101298.91;1856323;77;21052;-61
2021/07/08 08:58:16;;;;;;;2.52;1.55;;;;;;;33.64;27.78;101301.81;1856237;77;21030;-63
2021/07/08 09:00:47;;;;;;;5.00;1.60;;;;;;;33.58;27.21;101298.52;1856302;77;21595;-62
2021/07/08 09:03:18;;;;;;;5.90;1.80;;;;;;;33.60;27.61;101297.27;1856265;77;21093;-62
2021/07/08 09:05:50;;;;;;;1.40;0.80;;;;;;;33.77;27.59;101292.40;1855957;77;21183;-62
2021/07/08 09:08:21;;;;;;;3.42;1.30;;;;;;;33.90;27.27;101295.73;1856412;77;21062;-62
2021/07/08 09:11:05;;;;;;;4.05;1.32;;;;;;;33.85;26.81;101296.86;1856433;77;21055;-63
2021/07/08 09:13:48;;;;;;;5.87;1.50;;;;;;;33.85;26.39;101286.77;1856255;77;21143;-62
2021/07/08 09:16:22;;;;;;;2.75;1.15;;;;;;;33.72;26.71;101289.95;1856286;77;21054;-61
2021/07/08 09:19:09;;;;;;;3.95;1.12;;;;;;;33.66;26.41;101287.47;1854996;77;21090;-61
2021/07/08 09:21:43;;;;;;;2.37;1.00;;;;;;;33.64;26.14;101292.25;1856367;77;21144;-62
2021/07/08 09:24:15;;;;;;;8.30;1.57;;;;;;;33.81;26.48;101284.66;1840691;77;21141;-62
2021/07/08 09:27:02;;;;;;;7.90;1.40;;;;;;;33.68;25.87;101290.87;1838891;78;21051;-62
2021/07/08 09:29:36;;;;;;;3.27;1.17;;;;;;;33.63;25.55;101281.03;1839466;77;21046;-63
2021/07/08 09:32:07;;;;;;;7.85;1.60;;;;;;;33.61;26.15;101278.49;1839181;78;21050;-62
2021/07/08 09:34:37;;;;;;;3.22;1.15;;;;;;;33.72;26.16;101277.13;1837989;78;21054;-62
2021/07/08 09:37:15;;;;;;;5.95;1.37;;;;;;;33.72;25.59;101285.85;1838412;77;21104;-62
2021/07/08 09:39:52;;;;;;;3.85;1.00;;;;;;;33.76;25.10;101284.41;1840417;78;21046;-62
2021/07/08 09:42:36;;;;;;;3.80;1.37;;;;;;;33.62;24.80;101280.69;1839341;78;21129;-62
2021/07/08 09:45:11;;;;;;;6.78;1.47;;;;;;;33.67;25.64;101275.52;1838713;78;21116;-62
2021/07/08 09:47:41;;;;;;;3.75;1.52;;;;;;;33.73;25.97;101280.16;1839455;78;21011;-62
2021/07/08 09:50:16;;;;;;;4.08;1.30;;;;;;;33.83;26.11;101288.86;1837747;77;21078;-61
2021/07/08 09:52:47;;;;;;;3.67;1.40;;;;;;;33.78;25.55;101277.69;1823130;77;21604;-62
2021/07/08 09:55:30;;;;;;;1.60;1.05;;;;;;;33.82;26.07;101283.59;1824657;78;21188;-61
2021/07/08 09:57:48;;;;;;;4.30;1.40;;;;;;;33.68;25.04;101292.23;1837530;78;21105;-61
2021/07/08 10:00:22;;;;;;;10.88;1.70;;;;;;;33.51;25.16;101277.15;1839409;78;21175;-62
2021/07/08 10:02:53;;;;;;;5.95;1.70;;;;;;;33.40;25.76;101281.26;1838450;78;21082;-63
2021/07/08 10:05:27;;;;;;;3.37;1.10;;;;;;;33.49;26.44;101288.79;1838416;77;21114;-62
2021/07/08 10:07:55;;;;;;;3.87;1.20;;;;;;;33.44;25.12;101278.45;1839999;78;21109;-62
2021/07/08 10:10:24;;;;;;;5.78;1.47;;;;;;;33.26;24.88;101278.42;1839564;78;21583;-62
2021/07/08 10:12:53;;;;;;;3.65;1.40;;;;;;;33.15;25.20;101261.76;1840589;77;21082;-61
2021/07/08 10:15:22;;;;;;;6.40;1.62;;;;;;;33.13;25.92;101262.48;1840579;78;21059;-62
2021/07/08 10:17:51;;;;;;;10.88;2.02;;;;;;;33.21;26.26;101262.33;1838126;78;21193;-62
2021/07/08 10:20:20;;;;;;;5.40;1.60;;;;;;;33.26;27.04;101264.78;1837970;78;21058;-62
2021/07/08 10:22:49;;;;;;;5.58;1.37;;;;;;;33.50;27.31;101271.38;1840378;77;21106;-62
2021/07/08 10:25:18;;;;;;;3.42;1.10;;;;;;;33.56;26.41;101274.67;1830161;78;21168;-62
2021/07/08 10:27:48;;;;;;;7.12;1.70;;;;;;;33.38;25.40;101280.62;1830156;78;21191;-62
2021/07/08 10:30:21;;;;;;;3.22;1.40;;;;;;;33.18;25.25;101257.25;1830212;78;21054;-62
2021/07/08 10:33:00;;;;;;;5.05;1.22;;;;;;;33.09;25.03;101266.92;1830130;78;21054;-62
2021/07/08 10:35:43;;;;;;;5.78;1.50;;;;;;;32.95;25.04;101265.62;1830267;77;21062;-61
2021/07/08 10:38:31;;;;;;;5.37;1.30;;;;;;;32.78;24.99;101255.50;1800272;78;21505;-62
2021/07/08 10:41:03;;;;;;;5.65;1.50;;;;;;;32.62;25.11;101252.49;1830277;78;21497;-62
2021/07/08 10:43:38;;;;;;;2.08;0.70;;;;;;;32.44;25.69;101267.87;1830422;78;21082;-61
2021/07/08 10:46:12;;;;;;;3.17;1.37;;;;;;;32.39;25.29;101260.78;1830209;78;21579;-61
2021/07/08 10:48:51;;;;;;;2.30;0.90;;;;;;;32.31;25.74;101259.02;1830263;78;21132;-61
2021/07/08 10:51:26;;;;;;;4.45;1.40;;;;;;;32.21;25.64;101266.66;1830239;78;21046;-62
2021/07/08 10:53:55;;;;;;;3.08;1.67;;;;;;;32.04;25.90;101264.14;1828285;78;21050;-61
2021/07/08 10:56:34;;;;;;;2.12;1.25;;;;;;;31.96;26.46;101266.08;1830144;78;21059;-62
2021/07/08 10:59:16;;;;;;;3.15;1.62;;;;;;;31.91;25.96;101266.12;1830138;78;21092;-61
2021/07/08 11:01:50;;;;;;;4.15;1.20;;;;;;;31.78;25.70;101265.08;1830398;78;21034;-62
2021/07/08 11:04:36;;;;;;;1.10;0.90;;;;;;;31.65;26.26;101263.87;1830216;78;21054;-62
2021/07/08 11:07:15;;;;;;;2.58;0.98;;;;;;;31.60;25.84;101269.55;1736646;82;21260;-62
2021/07/08 11:10:02;;;;;;;2.27;1.00;;;;;;;31.54;25.74;101267.89;1801863;78;21584;-62
2021/07/08 11:12:37;;;;;;;5.55;1.30;;;;;;;31.55;26.46;101264.11;1830088;78;21066;-61
2021/07/08 11:15:08;;;;;;;3.75;1.10;;;;;;;31.58;26.63;101259.33;1829474;77;21030;-61
2021/07/08 11:17:42;;;;;;;2.60;1.35;;;;;;;31.58;26.90;101257.97;1830150;78;21057;-62
2021/07/08 11:20:30;;;;;;;1.72;1.00;;;;;;;31.62;27.53;101257.95;1830053;78;21053;-62
2021/07/08 11:23:10;;;;;;;1.65;1.07;;;;;;;31.64;26.67;101251.28;1828815;78;21524;-62
2021/07/08 11:25:43;;;;;;;3.83;1.00;;;;;;;31.57;26.46;101250.33;1792697;79;21094;-62
2021/07/08 11:28:30;;;;;;;2.42;1.12;;;;;;;31.51;26.65;101247.84;1824339;79;21027;-62
2021/07/08 11:31:04;;;;;;;3.90;1.40;;;;;;;31.48;27.09;101244.11;1824069;79;21564;-62
2021/07/08 11:33:38;;;;;;;4.92;1.35;;;;;;;31.48;27.16;101249.56;1823968;77;21140;-62
2021/07/08 11:36:13;;;;;;;3.10;1.37;;;;;;;31.50;27.61;101250.25;1824171;79;21048;-61
2021/07/08 11:38:43;;;;;;;2.77;1.15;;;;;;;31.54;27.15;101255.64;1824032;79;21050;-61
2021/07/08 11:41:14;;;;;;;2.50;1.15;;;;;;;31.48;26.79;101255.00;1824009;79;21050;-62
2021/07/08 11:43:45;;;;;;;2.20;1.30;;;;;;;31.46;26.65;101252.95;1824074;77;21058;-62